createdAt,value
2023-01-28T00:01:40.182Z,-1.19
2023-01-28T00:04:07.855Z,-1.29
2023-01-28T00:06:36.255Z,-1.19
2023-01-28T00:09:03.989Z,-1.22
2023-01-28T00:11:31.528Z,-1.30
2023-01-28T00:13:59.085Z,-1.32
2023-01-28T00:16:30.633Z,-1.22
2023-01-28T00:18:58.326Z,-1.24
2023-01-28T00:21:26.847Z,-1.22
2023-01-28T00:23:56.419Z,-1.18
2023-01-28T00:26:25.568Z,-1.06
2023-01-28T00:28:53.376Z,-1.01
2023-01-28T00:31:27.747Z,-0.96
2023-01-28T00:33:57.093Z,-0.90
2023-01-28T00:36:26.467Z,-0.85
2023-01-28T00:38:59.225Z,-0.87
2023-01-28T00:41:29.143Z,-1.00
2023-01-28T00:43:59.956Z,-1.05
2023-01-28T00:46:28.281Z,-1.01
2023-01-28T00:48:56.791Z,-0.94
2023-01-28T00:51:24.259Z,-0.91
2023-01-28T00:53:51.750Z,-0.90
2023-01-28T00:56:19.880Z,-0.94
2023-01-28T00:58:48.279Z,-0.91
2023-01-28T01:01:18.891Z,-0.92
2023-01-28T01:03:47.193Z,-0.92
2023-01-28T01:06:16.419Z,-0.87
2023-01-28T01:08:50.343Z,-0.88
2023-01-28T01:11:19.281Z,-0.93
2023-01-28T01:13:52.002Z,-0.90
2023-01-28T01:16:19.553Z,-1.00
2023-01-28T01:18:50.859Z,-1.07
2023-01-28T01:21:21.486Z,-1.19
2023-01-28T01:23:49.904Z,-1.06
2023-01-28T01:26:17.845Z,-1.14
2023-01-28T01:28:45.681Z,-1.14
2023-01-28T01:31:19.389Z,-1.12
2023-01-28T01:33:48.596Z,-1.07
2023-01-28T01:36:18.793Z,-1.05
2023-01-28T01:38:46.749Z,-1.05
2023-01-28T01:41:32.411Z,-0.94
2023-01-28T01:44:04.582Z,-0.98
2023-01-28T01:46:44.204Z,-0.85
2023-01-28T01:49:24.414Z,-0.81
2023-01-28T01:52:02.844Z,-0.85
2023-01-28T01:54:32.750Z,-0.98
2023-01-28T01:57:03.468Z,-0.97
2023-01-28T01:59:33.688Z,-0.98
2023-01-28T02:02:05.577Z,-0.96
2023-01-28T02:04:39.344Z,-0.92
2023-01-28T02:07:10.050Z,-0.90
2023-01-28T02:09:41.900Z,-0.99
2023-01-28T02:12:16.455Z,-0.94
2023-01-28T02:14:55.283Z,-0.81
2023-01-28T02:17:23.013Z,-0.83
2023-01-28T02:20:03.079Z,-0.76
2023-01-28T02:22:32.610Z,-0.88
2023-01-28T02:25:27.926Z,-0.83
2023-01-28T02:28:22.174Z,-0.93
2023-01-28T02:31:02.262Z,-0.94
2023-01-28T02:33:32.691Z,-0.93
2023-01-28T02:36:11.976Z,-0.99
2023-01-28T02:38:46.166Z,-0.95
2023-01-28T02:41:25.679Z,-0.87
2023-01-28T02:43:53.325Z,-0.87
2023-01-28T02:46:41.183Z,-0.82
2023-01-28T02:49:13.505Z,-0.82
2023-01-28T02:51:59.460Z,-0.81
2023-01-28T02:54:42.438Z,-0.84
2023-01-28T02:57:23.283Z,-0.85
2023-01-28T03:00:15.845Z,-0.79
2023-01-28T03:03:14.343Z,-0.72
2023-01-28T03:06:07.247Z,-0.72
2023-01-28T03:09:09.704Z,-0.76
2023-01-28T03:12:01.079Z,-0.77
2023-01-28T03:14:48.901Z,-0.81
2023-01-28T03:17:49.162Z,-0.84
2023-01-28T03:20:35.732Z,-1.06
2023-01-28T03:23:31.677Z,-1.03
2023-01-28T03:26:20.568Z,-1.01
2023-01-28T03:29:09.392Z,-1.07
2023-01-28T03:31:57.144Z,-1.02
2023-01-28T03:34:44.052Z,-1.04
2023-01-28T03:37:15.032Z,-1.03
2023-01-28T03:39:52.618Z,-1.09
2023-01-28T03:42:21.522Z,-1.01
2023-01-28T03:45:04.370Z,-0.91
2023-01-28T03:47:34.464Z,-0.85
2023-01-28T03:50:06.984Z,-0.83
2023-01-28T03:52:42.324Z,-0.82
2023-01-28T03:55:45.573Z,-0.57
2023-01-28T03:58:14.095Z,-0.75
2023-01-28T04:00:42.587Z,-0.77
2023-01-28T04:03:18.247Z,-0.74
2023-01-28T04:06:11.581Z,-0.75
2023-01-28T04:08:59.705Z,-0.79
2023-01-28T04:11:40.676Z,-0.79
2023-01-28T04:14:09.884Z,-0.73
2023-01-28T04:16:57.861Z,-0.76
2023-01-28T04:19:27.188Z,-0.71
2023-01-28T04:21:56.964Z,-0.74
2023-01-28T04:24:26.063Z,-0.72
2023-01-28T04:26:56.414Z,-0.73
2023-01-28T04:29:26.018Z,-0.72
2023-01-28T04:31:56.789Z,-0.77
2023-01-28T04:34:36.452Z,-0.68
2023-01-28T04:37:13.898Z,-0.65
2023-01-28T04:40:12.527Z,-0.69
2023-01-28T04:42:55.928Z,-0.60
2023-01-28T04:45:50.033Z,-0.57
2023-01-28T04:48:36.902Z,-0.55
2023-01-28T04:51:28.297Z,-0.58
2023-01-28T04:54:14.853Z,-0.59
2023-01-28T04:56:50.686Z,-0.52
2023-01-28T04:59:20.392Z,-0.51
2023-01-28T05:01:48.974Z,-0.48
2023-01-28T05:04:17.822Z,-0.48
2023-01-28T05:06:45.884Z,-0.50
2023-01-28T05:09:20.037Z,-0.55
2023-01-28T05:11:49.256Z,-0.52
2023-01-28T05:14:17.121Z,-0.57
2023-01-28T05:16:55.026Z,-0.48
2023-01-28T05:19:27.618Z,-0.65
2023-01-28T05:21:57.094Z,-0.80
2023-01-28T05:24:33.869Z,-0.73
2023-01-28T05:27:01.628Z,-0.74
2023-01-28T05:29:30.204Z,-0.69
2023-01-28T05:31:58.014Z,-0.70
2023-01-28T05:34:26.063Z,-0.60
2023-01-28T05:36:55.123Z,-0.62
2023-01-28T05:39:32.196Z,-0.58
2023-01-28T05:42:00.139Z,-0.56
2023-01-28T05:44:28.274Z,-0.59
2023-01-28T05:47:07.177Z,-0.57
2023-01-28T05:49:54.869Z,-0.60
2023-01-28T05:52:34.880Z,-0.50
2023-01-28T05:55:03.393Z,-0.44
2023-01-28T05:57:31.086Z,-0.36
2023-01-28T05:59:58.615Z,-0.37
2023-01-28T06:02:26.278Z,-0.38
2023-01-28T06:04:57.461Z,-0.30
2023-01-28T06:07:25.346Z,-0.35
2023-01-28T06:09:52.875Z,-0.33
2023-01-28T06:12:22.162Z,-0.27
2023-01-28T06:15:08.911Z,-0.21
2023-01-28T06:17:54.613Z,-0.28
2023-01-28T06:20:30.996Z,-0.31
2023-01-28T06:22:59.923Z,-0.32
2023-01-28T06:25:27.720Z,-0.33
2023-01-28T06:27:57.258Z,-0.35
2023-01-28T06:30:24.745Z,-0.47
2023-01-28T06:32:56.318Z,-0.45
2023-01-28T06:35:24.388Z,-0.38
2023-01-28T06:37:52.802Z,-0.29
2023-01-28T06:40:20.775Z,-0.17
2023-01-28T06:42:48.257Z,-0.11
2023-01-28T06:45:15.809Z,-0.07
2023-01-28T06:47:43.406Z,0.01
2023-01-28T06:50:11.440Z,-0.06
2023-01-28T06:52:38.968Z,-0.02
2023-01-28T06:55:06.793Z,0.03
2023-01-28T06:57:34.265Z,0.05
2023-01-28T07:00:01.863Z,0.06
2023-01-28T07:02:31.638Z,0.07
2023-01-28T07:04:59.120Z,0.02
2023-01-28T07:07:26.664Z,0.09
2023-01-28T07:09:54.154Z,0.15
2023-01-28T07:12:21.681Z,0.09
2023-01-28T07:14:49.193Z,0.19
2023-01-28T07:17:16.856Z,0.28
2023-01-28T07:19:44.453Z,0.33
2023-01-28T07:22:11.897Z,0.33
2023-01-28T07:24:39.367Z,0.38
2023-01-28T07:27:06.811Z,0.42
2023-01-28T07:29:34.465Z,0.44
2023-01-28T07:32:02.523Z,0.42
2023-01-28T07:34:30.110Z,0.54
2023-01-28T07:36:57.634Z,0.47
2023-01-28T07:39:25.326Z,0.60
2023-01-28T07:41:53.034Z,0.72
2023-01-28T07:44:33.020Z,0.72
2023-01-28T07:47:00.620Z,0.74
2023-01-28T07:49:28.077Z,0.75
2023-01-28T07:51:55.636Z,0.77
2023-01-28T07:54:23.100Z,0.79
2023-01-28T07:56:50.549Z,0.84
2023-01-28T07:59:18.055Z,0.76
2023-01-28T08:01:45.596Z,0.88
2023-01-28T08:04:13.193Z,0.81
2023-01-28T08:06:40.653Z,0.90
2023-01-28T08:09:08.839Z,0.72
2023-01-28T08:11:39.045Z,0.94
2023-01-28T08:14:07.182Z,0.95
2023-01-28T08:16:34.882Z,0.97
2023-01-28T08:19:03.134Z,0.97
2023-01-28T08:21:30.764Z,0.97
2023-01-28T08:23:58.325Z,0.96
2023-01-28T08:26:25.957Z,0.90
2023-01-28T08:28:53.504Z,0.84
2023-01-28T08:31:21.196Z,0.93
2023-01-28T08:33:48.837Z,0.81
2023-01-28T08:36:16.443Z,0.87
2023-01-28T08:38:44.048Z,0.80
2023-01-28T08:41:11.699Z,0.91
2023-01-28T08:43:39.264Z,0.93
2023-01-28T08:46:08.033Z,0.91
2023-01-28T08:48:35.547Z,0.94
2023-01-28T08:51:03.039Z,0.90
2023-01-28T08:53:30.683Z,0.85
2023-01-28T08:55:58.147Z,0.79
2023-01-28T08:58:25.893Z,0.91
2023-01-28T09:00:53.352Z,0.95
2023-01-28T09:03:21.016Z,0.91
2023-01-28T09:05:49.941Z,0.95
2023-01-28T09:08:17.465Z,0.98
2023-01-28T09:10:45.167Z,0.97
2023-01-28T09:13:16.157Z,1.07
2023-01-28T09:15:44.207Z,1.01
2023-01-28T09:18:11.987Z,1.00
2023-01-28T09:20:39.645Z,1.03
2023-01-28T09:23:07.333Z,0.92
2023-01-28T09:25:36.617Z,0.85
2023-01-28T09:28:04.572Z,0.96
2023-01-28T09:30:33.290Z,1.06
2023-01-28T09:33:02.064Z,1.06
2023-01-28T09:35:29.673Z,1.08
2023-01-28T09:37:59.077Z,1.20
2023-01-28T09:40:38.617Z,1.28
2023-01-28T09:43:37.053Z,1.26
2023-01-28T09:46:07.486Z,1.19
2023-01-28T09:48:41.193Z,1.24
2023-01-28T09:51:11.852Z,1.20
2023-01-28T09:53:46.893Z,1.24
2023-01-28T09:56:43.286Z,1.28
2023-01-28T09:59:23.208Z,1.24
2023-01-28T10:02:05.393Z,1.24
2023-01-28T10:04:53.819Z,1.26
2023-01-28T10:07:41.637Z,1.28
2023-01-28T10:10:32.054Z,1.26
2023-01-28T10:13:20.159Z,1.22
2023-01-28T10:16:09.047Z,1.23
2023-01-28T10:18:47.708Z,1.20
2023-01-28T10:21:36.838Z,1.20
2023-01-28T10:24:19.003Z,1.19
2023-01-28T10:26:46.867Z,0.98
2023-01-28T10:29:19.028Z,1.08
2023-01-28T10:32:05.778Z,1.15
2023-01-28T10:34:33.672Z,1.01
2023-01-28T10:37:01.355Z,1.07
2023-01-28T10:39:30.382Z,1.07
2023-01-28T10:41:59.091Z,1.00
2023-01-28T10:44:38.355Z,1.09
2023-01-28T10:47:16.676Z,1.02
2023-01-28T10:50:00.371Z,1.06
2023-01-28T10:52:28.101Z,0.98
2023-01-28T10:55:05.184Z,1.05
2023-01-28T10:57:41.805Z,0.98
2023-01-28T11:00:24.149Z,0.98
2023-01-28T11:02:51.958Z,0.90
2023-01-28T11:05:26.850Z,0.87
2023-01-28T11:08:05.247Z,0.94
2023-01-28T11:10:38.661Z,0.76
2023-01-28T11:13:17.175Z,0.81
2023-01-28T11:15:49.969Z,0.77
2023-01-28T11:18:36.220Z,0.81
2023-01-28T11:21:06.856Z,0.77
2023-01-28T11:23:40.092Z,0.77
2023-01-28T11:26:15.741Z,0.77
2023-01-28T11:28:44.335Z,0.75
2023-01-28T11:31:18.114Z,0.80
2023-01-28T11:33:45.605Z,1.00
2023-01-28T11:36:19.198Z,0.89
2023-01-28T11:38:59.103Z,0.88
2023-01-28T11:41:31.274Z,0.78
2023-01-28T11:44:01.035Z,0.80
2023-01-28T11:46:59.373Z,0.86
2023-01-28T11:49:54.904Z,0.81
2023-01-28T11:53:04.438Z,0.73
2023-01-28T11:55:50.170Z,0.76
2023-01-28T11:58:24.314Z,0.73
2023-01-28T12:01:03.198Z,0.75
2023-01-28T12:03:41.136Z,0.67
2023-01-28T12:06:11.410Z,0.64
2023-01-28T12:09:07.212Z,0.63
2023-01-28T12:12:13.020Z,0.71
2023-01-28T12:15:18.003Z,0.68
2023-01-28T12:18:30.105Z,0.48
2023-01-28T12:21:08.648Z,0.45
2023-01-28T12:24:18.982Z,0.53
2023-01-28T12:27:27.368Z,0.53
2023-01-28T12:30:31.055Z,0.49
2023-01-28T12:33:17.450Z,0.49
2023-01-28T12:36:07.397Z,0.50
2023-01-28T12:38:49.124Z,0.44
2023-01-28T12:41:25.222Z,0.26
2023-01-28T12:44:01.974Z,0.33
2023-01-28T12:46:45.767Z,0.22
2023-01-28T12:49:55.617Z,0.27
2023-01-28T12:52:30.582Z,0.21
2023-01-28T12:55:07.512Z,0.08
2023-01-28T12:57:36.402Z,0.01
2023-01-28T13:00:35.393Z,0.16
2023-01-28T13:03:11.959Z,-0.02
2023-01-28T13:05:46.111Z,-0.04
2023-01-28T13:08:23.852Z,-0.02
2023-01-28T13:10:53.075Z,-0.11
2023-01-28T13:13:32.037Z,-0.04
2023-01-28T13:16:00.816Z,-0.06
2023-01-28T13:18:34.246Z,0.01
2023-01-28T13:21:03.739Z,-0.02
2023-01-28T13:23:31.194Z,-0.01
2023-01-28T13:26:32.069Z,0.10
2023-01-28T13:29:20.348Z,0.16
2023-01-28T13:31:53.278Z,0.12
2023-01-28T13:34:37.663Z,0.13
2023-01-28T13:37:17.439Z,0.14
2023-01-28T13:39:52.540Z,0.10
2023-01-28T13:42:31.371Z,0.13
2023-01-28T13:45:17.470Z,0.23
2023-01-28T13:47:53.117Z,0.07
2023-01-28T13:50:24.585Z,0.04
2023-01-28T13:53:10.722Z,-0.03
2023-01-28T13:55:45.425Z,0.05
2023-01-28T13:58:50.657Z,0.14
2023-01-28T14:02:02.854Z,0.16
2023-01-28T14:04:50.339Z,0.20
2023-01-28T14:07:56.318Z,-0.07
2023-01-28T14:10:49.497Z,0.03
2023-01-28T14:13:16.815Z,0.08
2023-01-28T14:16:05.905Z,-0.05
2023-01-28T14:18:39.969Z,-0.09
2023-01-28T14:21:16.173Z,0.08
2023-01-28T14:23:50.367Z,-0.12
2023-01-28T14:26:39.530Z,-0.16
2023-01-28T14:29:21.255Z,-0.11
2023-01-28T14:31:49.011Z,-0.20
2023-01-28T14:34:28.464Z,-0.10
2023-01-28T14:37:32.451Z,-0.05
2023-01-28T14:40:15.089Z,-0.06
2023-01-28T14:42:45.730Z,-0.13
2023-01-28T14:45:50.149Z,-0.05
2023-01-28T14:48:26.281Z,-0.16
2023-01-28T14:51:18.059Z,-0.14
2023-01-28T14:54:16.376Z,-0.12
2023-01-28T14:56:58.892Z,-0.16
2023-01-28T14:59:46.670Z,-0.16
2023-01-28T15:02:31.532Z,-0.18
2023-01-28T15:05:16.699Z,-0.14
2023-01-28T15:07:46.760Z,-0.25
2023-01-28T15:10:19.097Z,-0.18
2023-01-28T15:12:54.899Z,-0.14
2023-01-28T15:15:30.923Z,-0.16
2023-01-28T15:18:19.840Z,-0.04
2023-01-28T15:20:50.810Z,-0.19
2023-01-28T15:23:28.363Z,-0.12
2023-01-28T15:25:56.406Z,-0.26
2023-01-28T15:28:35.947Z,-0.10
2023-01-28T15:31:04.050Z,-0.21
2023-01-28T15:33:31.747Z,-0.15
2023-01-28T15:35:59.949Z,-0.11
2023-01-28T15:38:29.457Z,-0.08
2023-01-28T15:41:01.677Z,-0.06
2023-01-28T15:43:36.888Z,-0.03
2023-01-28T15:46:09.925Z,-0.06
2023-01-28T15:48:37.791Z,-0.04
2023-01-28T15:51:18.697Z,-0.01
2023-01-28T15:53:50.353Z,-0.13
2023-01-28T15:56:25.985Z,-0.03
2023-01-28T15:58:54.190Z,-0.11
2023-01-28T16:01:22.860Z,-0.08
2023-01-28T16:04:10.531Z,-0.05
2023-01-28T16:06:41.990Z,-0.13
2023-01-28T16:09:25.107Z,-0.07
2023-01-28T16:11:53.146Z,-0.16
2023-01-28T16:14:31.833Z,-0.10
2023-01-28T16:16:59.540Z,-0.32
2023-01-28T16:19:49.475Z,-0.24
2023-01-28T16:22:28.171Z,-0.25
2023-01-28T16:24:56.056Z,-0.31
2023-01-28T16:27:26.269Z,-0.26
2023-01-28T16:29:54.591Z,-0.30
2023-01-28T16:32:35.843Z,-0.26
2023-01-28T16:35:05.463Z,-0.23
2023-01-28T16:37:33.004Z,-0.29
2023-01-28T16:40:02.189Z,-0.43
2023-01-28T16:42:32.744Z,-0.31
2023-01-28T16:45:00.351Z,-0.31
2023-01-28T16:47:28.862Z,-0.31
2023-01-28T16:49:56.522Z,-0.32
2023-01-28T16:52:24.055Z,-0.38
2023-01-28T16:54:51.727Z,-0.39
2023-01-28T16:57:21.939Z,-0.34
2023-01-28T16:59:49.529Z,-0.40
2023-01-28T17:02:18.205Z,-0.43
2023-01-28T17:04:45.797Z,-0.39
2023-01-28T17:07:13.366Z,-0.53
2023-01-28T17:09:40.943Z,-0.50
2023-01-28T17:12:08.463Z,-0.44
2023-01-28T17:14:36.042Z,-0.45
2023-01-28T17:17:03.771Z,-0.41
2023-01-28T17:19:31.367Z,-0.40
2023-01-28T17:21:59.917Z,-0.33
2023-01-28T17:24:29.445Z,-0.39
2023-01-28T17:26:56.956Z,-0.37
2023-01-28T17:29:24.438Z,-0.31
2023-01-28T17:31:52.031Z,-0.36
2023-01-28T17:34:19.705Z,-0.33
2023-01-28T17:36:47.144Z,-0.37
2023-01-28T17:39:14.683Z,-0.36
2023-01-28T17:41:42.298Z,-0.33
2023-01-28T17:44:15.201Z,-0.32
2023-01-28T17:46:43.000Z,-0.32
2023-01-28T17:49:10.705Z,-0.28
2023-01-28T17:51:38.216Z,-0.35
2023-01-28T17:54:06.326Z,-0.34
2023-01-28T17:56:33.871Z,-0.27
2023-01-28T17:59:04.028Z,-0.22
2023-01-28T18:01:31.978Z,-0.22
2023-01-28T18:04:00.741Z,-0.23
2023-01-28T18:06:32.956Z,-0.22
2023-01-28T18:09:00.557Z,-0.32
2023-01-28T18:11:28.990Z,-0.32
2023-01-28T18:13:56.731Z,-0.25
2023-01-28T18:16:25.009Z,-0.22
2023-01-28T18:18:52.914Z,-0.26
2023-01-28T18:21:51.790Z,-0.14
2023-01-28T18:24:22.010Z,-0.14
2023-01-28T18:26:51.085Z,-0.09
2023-01-28T18:29:21.078Z,-0.08
2023-01-28T18:31:49.641Z,-0.08
2023-01-28T18:34:19.055Z,-0.03
2023-01-28T18:36:46.935Z,-0.04
2023-01-28T18:39:15.414Z,-0.18
2023-01-28T18:41:43.364Z,-0.20
2023-01-28T18:44:12.734Z,-0.09
2023-01-28T18:46:40.520Z,-0.10
2023-01-28T18:49:08.209Z,-0.12
2023-01-28T18:51:35.798Z,-0.09
2023-01-28T18:54:05.267Z,-0.07
2023-01-28T18:56:33.765Z,-0.06
2023-01-28T18:59:03.881Z,-0.04
2023-01-28T19:01:33.520Z,-0.06
2023-01-28T19:04:01.920Z,-0.10
2023-01-28T19:06:31.093Z,-0.09
2023-01-28T19:09:07.890Z,-0.07
2023-01-28T19:11:35.979Z,-0.01
2023-01-28T19:14:03.610Z,-0.01
2023-01-28T19:16:31.268Z,0.01
2023-01-28T19:19:01.354Z,-0.01
2023-01-28T19:21:30.590Z,0.03
2023-01-28T19:24:01.259Z,0.10
2023-01-28T19:26:31.318Z,0.06
2023-01-28T19:28:59.180Z,0.01
2023-01-28T19:31:27.726Z,0.09
2023-01-28T19:33:57.934Z,0.02
2023-01-28T19:36:27.676Z,0.06
2023-01-28T19:39:00.268Z,0.11
2023-01-28T19:41:29.206Z,0.04
2023-01-28T19:43:57.656Z,-0.02
2023-01-28T19:46:25.846Z,0.11
2023-01-28T19:48:53.831Z,0.10
2023-01-28T19:51:22.357Z,0.13
2023-01-28T19:53:51.769Z,0.15
2023-01-28T19:56:20.801Z,-0.08
2023-01-28T19:58:48.530Z,0.01
2023-01-28T20:01:22.687Z,0.09
2023-01-28T20:03:53.200Z,0.09
2023-01-28T20:06:22.008Z,0.01
2023-01-28T20:08:54.864Z,0.07
2023-01-28T20:11:23.412Z,0.05
2023-01-28T20:13:52.779Z,0.08
2023-01-28T20:16:25.749Z,0.02
2023-01-28T20:19:03.868Z,0.07
2023-01-28T20:21:32.676Z,0.01
2023-01-28T20:24:02.206Z,0.02
2023-01-28T20:26:32.332Z,0.00
2023-01-28T20:29:11.043Z,-0.01
2023-01-28T20:31:40.115Z,-0.01
2023-01-28T20:34:15.550Z,-0.02
2023-01-28T20:36:43.647Z,0.01
2023-01-28T20:39:11.664Z,-0.02
2023-01-28T20:41:39.303Z,-0.02
2023-01-28T20:44:06.818Z,-0.13
2023-01-28T20:46:36.852Z,-0.19
2023-01-28T20:49:06.900Z,-0.14
2023-01-28T20:51:36.000Z,-0.14
2023-01-28T20:54:04.664Z,-0.20
2023-01-28T20:56:32.723Z,-0.32
2023-01-28T20:59:06.202Z,-0.23
2023-01-28T21:01:35.789Z,-0.23
2023-01-28T21:04:05.232Z,-0.26
2023-01-28T21:06:33.371Z,-0.32
2023-01-28T21:09:01.563Z,-0.31
2023-01-28T21:11:29.308Z,-0.39
2023-01-28T21:13:57.547Z,-0.42
2023-01-28T21:16:25.635Z,-0.49
2023-01-28T21:18:53.187Z,-0.50
2023-01-28T21:21:26.950Z,-0.42
2023-01-28T21:23:58.158Z,-0.53
2023-01-28T21:26:26.470Z,-0.50
2023-01-28T21:28:54.298Z,-0.51
2023-01-28T21:31:25.476Z,-0.47
2023-01-28T21:33:57.612Z,-0.53
2023-01-28T21:36:26.260Z,-0.50
2023-01-28T21:38:56.501Z,-0.44
2023-01-28T21:41:24.546Z,-0.47
2023-01-28T21:43:54.054Z,-0.44
2023-01-28T21:46:22.693Z,-0.47
2023-01-28T21:48:54.380Z,-0.49
2023-01-28T21:51:40.777Z,-0.49
2023-01-28T21:54:14.871Z,-0.43
2023-01-28T21:56:50.242Z,-0.43
2023-01-28T21:59:34.898Z,-0.46
2023-01-28T22:02:11.185Z,-0.42
2023-01-28T22:04:41.453Z,-0.41
2023-01-28T22:07:11.946Z,-0.44
2023-01-28T22:09:40.309Z,-0.43
2023-01-28T22:12:08.354Z,-0.40
2023-01-28T22:14:37.636Z,-0.40
2023-01-28T22:17:07.690Z,-0.42
2023-01-28T22:19:35.860Z,-0.58
2023-01-28T22:22:04.157Z,-0.41
2023-01-28T22:24:32.072Z,-0.43
2023-01-28T22:27:00.039Z,-0.40
2023-01-28T22:29:28.422Z,-0.40
2023-01-28T22:31:56.262Z,-0.46
2023-01-28T22:34:24.209Z,-0.44
2023-01-28T22:36:51.941Z,-0.42
2023-01-28T22:39:20.094Z,-0.43
2023-01-28T22:41:48.348Z,-0.36
2023-01-28T22:44:16.355Z,-0.38
2023-01-28T22:46:43.954Z,-0.50
2023-01-28T22:49:12.521Z,-0.55
2023-01-28T22:51:40.092Z,-0.51
2023-01-28T22:54:08.312Z,-0.46
2023-01-28T22:56:35.889Z,-0.48
2023-01-28T22:59:04.681Z,-0.57
2023-01-28T23:01:33.990Z,-0.53
2023-01-28T23:04:01.579Z,-0.56
2023-01-28T23:06:30.418Z,-0.57
2023-01-28T23:08:58.314Z,-0.55
2023-01-28T23:11:27.664Z,-0.58
2023-01-28T23:14:17.325Z,-0.57
2023-01-28T23:17:04.501Z,-0.71
2023-01-28T23:19:51.271Z,-0.65
2023-01-28T23:22:51.976Z,-0.58
2023-01-28T23:25:20.420Z,-0.78
2023-01-28T23:27:47.983Z,-0.87
2023-01-28T23:30:16.098Z,-0.93
2023-01-28T23:32:48.885Z,-0.91
2023-01-28T23:35:19.266Z,-0.95
2023-01-28T23:37:47.663Z,-1.04
2023-01-28T23:40:16.680Z,-1.02
2023-01-28T23:42:55.250Z,-0.99
2023-01-28T23:45:22.957Z,-1.08
2023-01-28T23:47:50.548Z,-1.10
2023-01-28T23:50:18.409Z,-1.10
2023-01-28T23:52:46.011Z,-1.09
2023-01-28T23:55:13.550Z,-1.06
2023-01-28T23:57:41.232Z,-1.00
